sensor_id;sensor_type;location;lat;lon;timestamp;P1;durP1;ratioP1;P2;durP2;ratioP2
48613;SDS011;34408;51.426;5.444;2023-08-17T00:02:17;4.05;;;1.60;;
48613;SDS011;34408;51.426;5.444;2023-08-17T00:04:45;5.20;;;1.58;;
48613;SDS011;34408;51.426;5.444;2023-08-17T00:07:13;5.30;;;1.85;;
48613;SDS011;34408;51.426;5.444;2023-08-17T00:09:42;4.20;;;1.33;;
48613;SDS011;34408;51.426;5.444;2023-08-17T00:12:10;5.63;;;1.52;;
48613;SDS011;34408;51.426;5.444;2023-08-17T00:18:25;3.58;;;1.70;;
48613;SDS011;34408;51.426;5.444;2023-08-17T00:20:53;2.67;;;1.33;;
48613;SDS011;34408;51.426;5.444;2023-08-17T00:23:21;3.00;;;1.63;;
48613;SDS011;34408;51.426;5.444;2023-08-17T00:25:50;4.45;;;1.48;;
48613;SDS011;34408;51.426;5.444;2023-08-17T00:28:18;2.60;;;1.15;;
48613;SDS011;34408;51.426;5.444;2023-08-17T00:30:46;3.85;;;1.50;;
48613;SDS011;34408;51.426;5.444;2023-08-17T00:33:14;3.25;;;1.30;;
48613;SDS011;34408;51.426;5.444;2023-08-17T00:35:42;5.10;;;1.65;;
48613;SDS011;34408;51.426;5.444;2023-08-17T00:38:12;3.13;;;1.17;;
48613;SDS011;34408;51.426;5.444;2023-08-17T00:40:40;4.03;;;1.30;;
48613;SDS011;34408;51.426;5.444;2023-08-17T00:43:09;3.42;;;1.33;;
48613;SDS011;34408;51.426;5.444;2023-08-17T00:45:37;4.03;;;1.50;;
48613;SDS011;34408;51.426;5.444;2023-08-17T00:48:05;2.10;;;1.20;;
48613;SDS011;34408;51.426;5.444;2023-08-17T00:50:35;3.75;;;1.50;;
48613;SDS011;34408;51.426;5.444;2023-08-17T00:53:05;4.53;;;1.38;;
48613;SDS011;34408;51.426;5.444;2023-08-17T00:55:39;2.15;;;1.38;;
48613;SDS011;34408;51.426;5.444;2023-08-17T00:58:09;3.58;;;1.45;;
48613;SDS011;34408;51.426;5.444;2023-08-17T01:00:37;3.60;;;1.30;;
48613;SDS011;34408;51.426;5.444;2023-08-17T01:03:05;4.00;;;1.20;;
48613;SDS011;34408;51.426;5.444;2023-08-17T01:05:33;2.97;;;1.50;;
48613;SDS011;34408;51.426;5.444;2023-08-17T01:08:01;7.05;;;1.60;;
48613;SDS011;34408;51.426;5.444;2023-08-17T01:10:30;2.90;;;1.52;;
48613;SDS011;34408;51.426;5.444;2023-08-17T01:13:05;5.30;;;1.38;;
48613;SDS011;34408;51.426;5.444;2023-08-17T01:15:42;3.55;;;1.48;;
48613;SDS011;34408;51.426;5.444;2023-08-17T01:18:20;4.85;;;1.40;;
48613;SDS011;34408;51.426;5.444;2023-08-17T01:20:49;3.60;;;1.50;;
48613;SDS011;34408;51.426;5.444;2023-08-17T01:23:20;4.28;;;1.40;;
48613;SDS011;34408;51.426;5.444;2023-08-17T01:25:48;4.18;;;1.58;;
48613;SDS011;34408;51.426;5.444;2023-08-17T01:28:16;6.38;;;1.45;;
48613;SDS011;34408;51.426;5.444;2023-08-17T01:30:46;3.45;;;1.58;;
48613;SDS011;34408;51.426;5.444;2023-08-17T01:33:24;3.58;;;1.52;;
48613;SDS011;34408;51.426;5.444;2023-08-17T01:36:03;4.30;;;1.60;;
48613;SDS011;34408;51.426;5.444;2023-08-17T01:38:39;3.40;;;1.40;;
48613;SDS011;34408;51.426;5.444;2023-08-17T01:41:09;4.43;;;1.40;;
48613;SDS011;34408;51.426;5.444;2023-08-17T01:43:40;4.50;;;1.67;;
48613;SDS011;34408;51.426;5.444;2023-08-17T01:46:13;2.35;;;1.30;;
48613;SDS011;34408;51.426;5.444;2023-08-17T01:48:41;3.03;;;1.55;;
48613;SDS011;34408;51.426;5.444;2023-08-17T01:51:09;3.60;;;1.20;;
48613;SDS011;34408;51.426;5.444;2023-08-17T01:53:39;4.88;;;1.60;;
48613;SDS011;34408;51.426;5.444;2023-08-17T01:56:07;2.55;;;1.33;;
48613;SDS011;34408;51.426;5.444;2023-08-17T01:58:35;3.63;;;1.58;;
48613;SDS011;34408;51.426;5.444;2023-08-17T02:01:03;2.70;;;1.17;;
48613;SDS011;34408;51.426;5.444;2023-08-17T02:03:31;6.45;;;1.40;;
48613;SDS011;34408;51.426;5.444;2023-08-17T02:05:59;2.78;;;1.60;;
48613;SDS011;34408;51.426;5.444;2023-08-17T02:08:27;4.05;;;1.60;;
48613;SDS011;34408;51.426;5.444;2023-08-17T02:10:56;3.78;;;1.45;;
48613;SDS011;34408;51.426;5.444;2023-08-17T02:13:24;4.57;;;1.50;;
48613;SDS011;34408;51.426;5.444;2023-08-17T02:15:53;3.78;;;1.40;;
48613;SDS011;34408;51.426;5.444;2023-08-17T02:18:21;3.65;;;2.05;;
48613;SDS011;34408;51.426;5.444;2023-08-17T02:20:49;3.28;;;1.50;;
48613;SDS011;34408;51.426;5.444;2023-08-17T02:23:17;3.97;;;1.60;;
48613;SDS011;34408;51.426;5.444;2023-08-17T02:25:44;4.32;;;1.60;;
48613;SDS011;34408;51.426;5.444;2023-08-17T02:28:14;3.75;;;1.80;;
48613;SDS011;34408;51.426;5.444;2023-08-17T02:30:41;6.47;;;1.77;;
48613;SDS011;34408;51.426;5.444;2023-08-17T02:33:10;5.97;;;1.85;;
48613;SDS011;34408;51.426;5.444;2023-08-17T02:35:38;6.00;;;1.40;;
48613;SDS011;34408;51.426;5.444;2023-08-17T02:38:06;2.85;;;1.30;;
48613;SDS011;34408;51.426;5.444;2023-08-17T02:40:34;3.97;;;1.80;;
48613;SDS011;34408;51.426;5.444;2023-08-17T02:43:02;5.47;;;1.70;;
48613;SDS011;34408;51.426;5.444;2023-08-17T02:45:31;4.70;;;1.60;;
48613;SDS011;34408;51.426;5.444;2023-08-17T02:48:01;8.00;;;1.52;;
48613;SDS011;34408;51.426;5.444;2023-08-17T02:50:29;5.53;;;2.03;;
48613;SDS011;34408;51.426;5.444;2023-08-17T02:52:56;4.60;;;1.60;;
48613;SDS011;34408;51.426;5.444;2023-08-17T02:55:26;3.13;;;1.70;;
48613;SDS011;34408;51.426;5.444;2023-08-17T02:57:54;3.95;;;1.50;;
48613;SDS011;34408;51.426;5.444;2023-08-17T03:00:21;2.38;;;1.42;;
48613;SDS011;34408;51.426;5.444;2023-08-17T03:02:51;6.07;;;1.45;;
48613;SDS011;34408;51.426;5.444;2023-08-17T03:05:19;5.50;;;1.95;;
48613;SDS011;34408;51.426;5.444;2023-08-17T03:07:47;3.40;;;1.75;;
48613;SDS011;34408;51.426;5.444;2023-08-17T03:10:15;5.97;;;1.83;;
48613;SDS011;34408;51.426;5.444;2023-08-17T03:12:43;5.32;;;2.00;;
48613;SDS011;34408;51.426;5.444;2023-08-17T03:15:10;5.03;;;1.52;;
48613;SDS011;34408;51.426;5.444;2023-08-17T03:17:38;5.10;;;1.80;;
48613;SDS011;34408;51.426;5.444;2023-08-17T03:20:08;7.13;;;1.90;;
48613;SDS011;34408;51.426;5.444;2023-08-17T03:22:36;4.43;;;1.80;;
48613;SDS011;34408;51.426;5.444;2023-08-17T03:25:05;2.53;;;1.38;;
48613;SDS011;34408;51.426;5.444;2023-08-17T03:27:33;3.50;;;1.48;;
48613;SDS011;34408;51.426;5.444;2023-08-17T03:30:01;3.63;;;1.50;;
48613;SDS011;34408;51.426;5.444;2023-08-17T03:32:30;6.55;;;2.13;;
48613;SDS011;34408;51.426;5.444;2023-08-17T03:34:57;12.85;;;1.90;;
48613;SDS011;34408;51.426;5.444;2023-08-17T03:37:27;6.00;;;2.58;;
48613;SDS011;34408;51.426;5.444;2023-08-17T03:39:55;6.88;;;1.95;;
48613;SDS011;34408;51.426;5.444;2023-08-17T03:42:23;4.38;;;1.63;;
48613;SDS011;34408;51.426;5.444;2023-08-17T03:44:50;3.10;;;1.58;;
48613;SDS011;34408;51.426;5.444;2023-08-17T03:47:18;3.00;;;1.50;;
48613;SDS011;34408;51.426;5.444;2023-08-17T03:49:46;4.18;;;1.48;;
48613;SDS011;34408;51.426;5.444;2023-08-17T03:52:14;5.63;;;1.77;;
48613;SDS011;34408;51.426;5.444;2023-08-17T03:54:44;6.28;;;1.80;;
48613;SDS011;34408;51.426;5.444;2023-08-17T03:57:12;5.00;;;1.95;;
48613;SDS011;34408;51.426;5.444;2023-08-17T03:59:41;2.15;;;1.17;;
48613;SDS011;34408;51.426;5.444;2023-08-17T04:02:08;5.00;;;1.40;;
48613;SDS011;34408;51.426;5.444;2023-08-17T04:04:37;4.35;;;1.83;;
48613;SDS011;34408;51.426;5.444;2023-08-17T04:07:05;2.60;;;1.40;;
48613;SDS011;34408;51.426;5.444;2023-08-17T04:09:33;6.55;;;1.92;;
48613;SDS011;34408;51.426;5.444;2023-08-17T04:12:03;4.43;;;1.50;;
48613;SDS011;34408;51.426;5.444;2023-08-17T04:14:32;6.18;;;1.50;;
48613;SDS011;34408;51.426;5.444;2023-08-17T04:17:00;6.07;;;1.30;;
48613;SDS011;34408;51.426;5.444;2023-08-17T04:19:28;5.45;;;1.40;;
48613;SDS011;34408;51.426;5.444;2023-08-17T04:21:56;4.63;;;1.88;;
48613;SDS011;34408;51.426;5.444;2023-08-17T04:24:24;4.82;;;1.25;;
48613;SDS011;34408;51.426;5.444;2023-08-17T04:26:52;4.20;;;1.67;;
48613;SDS011;34408;51.426;5.444;2023-08-17T04:29:21;4.22;;;1.50;;
48613;SDS011;34408;51.426;5.444;2023-08-17T04:31:49;6.15;;;1.60;;
48613;SDS011;34408;51.426;5.444;2023-08-17T04:34:17;4.38;;;1.65;;
48613;SDS011;34408;51.426;5.444;2023-08-17T04:36:45;3.78;;;1.95;;
48613;SDS011;34408;51.426;5.444;2023-08-17T04:39:13;3.45;;;1.63;;
48613;SDS011;34408;51.426;5.444;2023-08-17T04:41:41;4.82;;;1.70;;
48613;SDS011;34408;51.426;5.444;2023-08-17T04:44:09;3.38;;;1.70;;
48613;SDS011;34408;51.426;5.444;2023-08-17T04:46:38;4.85;;;1.92;;
48613;SDS011;34408;51.426;5.444;2023-08-17T04:49:06;4.20;;;1.42;;
48613;SDS011;34408;51.426;5.444;2023-08-17T04:51:34;4.78;;;1.50;;
48613;SDS011;34408;51.426;5.444;2023-08-17T04:54:02;6.35;;;1.70;;
48613;SDS011;34408;51.426;5.444;2023-08-17T04:56:31;4.15;;;1.70;;
48613;SDS011;34408;51.426;5.444;2023-08-17T04:58:58;3.63;;;1.55;;
48613;SDS011;34408;51.426;5.444;2023-08-17T05:01:26;5.20;;;1.60;;
48613;SDS011;34408;51.426;5.444;2023-08-17T05:03:56;5.60;;;2.13;;
48613;SDS011;34408;51.426;5.444;2023-08-17T05:06:24;5.68;;;1.60;;
48613;SDS011;34408;51.426;5.444;2023-08-17T05:08:51;5.43;;;2.20;;
48613;SDS011;34408;51.426;5.444;2023-08-17T05:11:19;3.20;;;1.35;;
48613;SDS011;34408;51.426;5.444;2023-08-17T05:13:47;5.40;;;1.42;;
48613;SDS011;34408;51.426;5.444;2023-08-17T05:16:15;3.97;;;1.75;;
48613;SDS011;34408;51.426;5.444;2023-08-17T05:18:43;5.90;;;1.50;;
48613;SDS011;34408;51.426;5.444;2023-08-17T05:21:12;5.53;;;2.00;;
48613;SDS011;34408;51.426;5.444;2023-08-17T05:23:40;2.88;;;1.40;;
48613;SDS011;34408;51.426;5.444;2023-08-17T05:26:08;3.42;;;1.17;;
48613;SDS011;34408;51.426;5.444;2023-08-17T05:28:36;6.18;;;1.75;;
48613;SDS011;34408;51.426;5.444;2023-08-17T05:31:04;5.78;;;1.20;;
48613;SDS011;34408;51.426;5.444;2023-08-17T05:33:33;4.90;;;1.95;;
48613;SDS011;34408;51.426;5.444;2023-08-17T05:36:01;2.28;;;1.40;;
48613;SDS011;34408;51.426;5.444;2023-08-17T05:38:31;4.00;;;1.52;;
48613;SDS011;34408;51.426;5.444;2023-08-17T05:40:59;3.00;;;1.48;;
48613;SDS011;34408;51.426;5.444;2023-08-17T05:43:28;2.97;;;1.77;;
48613;SDS011;34408;51.426;5.444;2023-08-17T05:45:56;3.92;;;1.83;;
48613;SDS011;34408;51.426;5.444;2023-08-17T05:48:24;2.35;;;1.48;;
48613;SDS011;34408;51.426;5.444;2023-08-17T05:50:52;4.15;;;1.70;;
48613;SDS011;34408;51.426;5.444;2023-08-17T05:53:22;3.28;;;1.52;;
48613;SDS011;34408;51.426;5.444;2023-08-17T05:55:51;2.88;;;1.60;;
48613;SDS011;34408;51.426;5.444;2023-08-17T05:58:19;4.38;;;1.90;;
48613;SDS011;34408;51.426;5.444;2023-08-17T06:00:47;8.10;;;1.83;;
48613;SDS011;34408;51.426;5.444;2023-08-17T06:03:16;5.07;;;2.28;;
48613;SDS011;34408;51.426;5.444;2023-08-17T06:05:44;6.07;;;1.52;;
48613;SDS011;34408;51.426;5.444;2023-08-17T06:08:11;6.18;;;1.58;;
48613;SDS011;34408;51.426;5.444;2023-08-17T06:10:39;5.22;;;1.85;;
48613;SDS011;34408;51.426;5.444;2023-08-17T06:13:09;3.25;;;1.63;;
48613;SDS011;34408;51.426;5.444;2023-08-17T06:15:36;4.80;;;1.70;;
48613;SDS011;34408;51.426;5.444;2023-08-17T06:18:04;3.78;;;1.30;;
48613;SDS011;34408;51.426;5.444;2023-08-17T06:20:32;7.63;;;2.22;;
48613;SDS011;34408;51.426;5.444;2023-08-17T06:23:00;5.10;;;1.80;;
48613;SDS011;34408;51.426;5.444;2023-08-17T06:25:28;4.22;;;2.15;;
48613;SDS011;34408;51.426;5.444;2023-08-17T06:27:56;6.75;;;1.75;;
48613;SDS011;34408;51.426;5.444;2023-08-17T06:30:26;5.13;;;2.30;;
48613;SDS011;34408;51.426;5.444;2023-08-17T06:32:53;6.05;;;2.03;;
48613;SDS011;34408;51.426;5.444;2023-08-17T06:35:21;4.18;;;2.15;;
48613;SDS011;34408;51.426;5.444;2023-08-17T06:37:49;4.80;;;1.98;;
48613;SDS011;34408;51.426;5.444;2023-08-17T06:40:17;3.28;;;1.65;;
48613;SDS011;34408;51.426;5.444;2023-08-17T06:42:45;6.30;;;1.98;;
48613;SDS011;34408;51.426;5.444;2023-08-17T06:45:13;6.25;;;1.90;;
48613;SDS011;34408;51.426;5.444;2023-08-17T06:47:46;5.32;;;1.90;;
48613;SDS011;34408;51.426;5.444;2023-08-17T06:50:15;2.53;;;1.40;;
48613;SDS011;34408;51.426;5.444;2023-08-17T06:52:43;5.93;;;1.95;;
48613;SDS011;34408;51.426;5.444;2023-08-17T06:55:11;5.70;;;1.65;;
48613;SDS011;34408;51.426;5.444;2023-08-17T06:57:39;6.68;;;1.88;;
48613;SDS011;34408;51.426;5.444;2023-08-17T07:00:07;5.07;;;1.92;;
48613;SDS011;34408;51.426;5.444;2023-08-17T07:02:37;3.60;;;1.50;;
48613;SDS011;34408;51.426;5.444;2023-08-17T07:05:20;6.07;;;1.70;;
48613;SDS011;34408;51.426;5.444;2023-08-17T07:07:48;6.13;;;1.85;;
48613;SDS011;34408;51.426;5.444;2023-08-17T07:10:16;4.85;;;1.75;;
48613;SDS011;34408;51.426;5.444;2023-08-17T07:12:45;8.73;;;2.15;;
48613;SDS011;34408;51.426;5.444;2023-08-17T07:15:12;8.02;;;1.92;;
48613;SDS011;34408;51.426;5.444;2023-08-17T07:17:41;3.10;;;1.50;;
48613;SDS011;34408;51.426;5.444;2023-08-17T07:20:10;4.82;;;1.83;;
48613;SDS011;34408;51.426;5.444;2023-08-17T07:22:44;9.27;;;2.47;;
48613;SDS011;34408;51.426;5.444;2023-08-17T07:25:11;8.48;;;1.92;;
48613;SDS011;34408;51.426;5.444;2023-08-17T07:27:39;4.75;;;2.25;;
48613;SDS011;34408;51.426;5.444;2023-08-17T07:30:08;4.45;;;1.90;;
48613;SDS011;34408;51.426;5.444;2023-08-17T07:32:37;5.53;;;1.88;;
48613;SDS011;34408;51.426;5.444;2023-08-17T07:35:05;9.25;;;2.03;;
48613;SDS011;34408;51.426;5.444;2023-08-17T07:37:35;4.22;;;2.25;;
48613;SDS011;34408;51.426;5.444;2023-08-17T07:40:05;7.15;;;2.50;;
48613;SDS011;34408;51.426;5.444;2023-08-17T07:42:34;3.33;;;1.30;;
48613;SDS011;34408;51.426;5.444;2023-08-17T07:45:02;4.60;;;1.83;;
48613;SDS011;34408;51.426;5.444;2023-08-17T07:47:33;4.38;;;1.98;;
48613;SDS011;34408;51.426;5.444;2023-08-17T07:50:01;5.43;;;2.53;;
48613;SDS011;34408;51.426;5.444;2023-08-17T07:52:29;6.28;;;1.80;;
48613;SDS011;34408;51.426;5.444;2023-08-17T07:54:57;2.80;;;1.65;;
48613;SDS011;34408;51.426;5.444;2023-08-17T07:57:27;6.13;;;2.78;;
48613;SDS011;34408;51.426;5.444;2023-08-17T07:59:55;6.63;;;2.05;;
48613;SDS011;34408;51.426;5.444;2023-08-17T08:02:23;8.55;;;2.67;;
48613;SDS011;34408;51.426;5.444;2023-08-17T08:04:51;6.05;;;2.35;;
48613;SDS011;34408;51.426;5.444;2023-08-17T08:07:18;5.63;;;1.98;;
48613;SDS011;34408;51.426;5.444;2023-08-17T08:09:46;4.60;;;1.75;;
48613;SDS011;34408;51.426;5.444;2023-08-17T08:12:14;4.65;;;1.85;;
48613;SDS011;34408;51.426;5.444;2023-08-17T08:14:43;6.68;;;2.15;;
48613;SDS011;34408;51.426;5.444;2023-08-17T08:17:11;7.32;;;1.90;;
48613;SDS011;34408;51.426;5.444;2023-08-17T08:19:39;6.35;;;2.50;;
48613;SDS011;34408;51.426;5.444;2023-08-17T08:22:07;6.70;;;2.30;;
48613;SDS011;34408;51.426;5.444;2023-08-17T08:24:35;7.47;;;2.22;;
48613;SDS011;34408;51.426;5.444;2023-08-17T08:27:05;7.00;;;1.98;;
48613;SDS011;34408;51.426;5.444;2023-08-17T08:29:33;5.32;;;2.10;;
48613;SDS011;34408;51.426;5.444;2023-08-17T08:32:03;5.65;;;2.10;;
48613;SDS011;34408;51.426;5.444;2023-08-17T08:34:31;5.05;;;2.13;;
48613;SDS011;34408;51.426;5.444;2023-08-17T08:36:59;4.10;;;2.00;;
48613;SDS011;34408;51.426;5.444;2023-08-17T08:39:27;5.53;;;2.08;;
48613;SDS011;34408;51.426;5.444;2023-08-17T08:41:54;5.47;;;1.77;;
48613;SDS011;34408;51.426;5.444;2023-08-17T08:44:23;3.70;;;1.80;;
48613;SDS011;34408;51.426;5.444;2023-08-17T08:46:51;5.82;;;2.05;;
48613;SDS011;34408;51.426;5.444;2023-08-17T08:49:23;2.88;;;1.75;;
48613;SDS011;34408;51.426;5.444;2023-08-17T08:51:52;7.72;;;1.88;;
48613;SDS011;34408;51.426;5.444;2023-08-17T08:54:20;7.47;;;2.30;;
48613;SDS011;34408;51.426;5.444;2023-08-17T08:56:51;5.20;;;2.08;;
48613;SDS011;34408;51.426;5.444;2023-08-17T08:59:22;6.07;;;2.42;;
48613;SDS011;34408;51.426;5.444;2023-08-17T09:01:53;13.90;;;3.30;;
48613;SDS011;34408;51.426;5.444;2023-08-17T09:04:24;6.60;;;2.30;;
48613;SDS011;34408;51.426;5.444;2023-08-17T09:06:53;6.78;;;2.35;;
48613;SDS011;34408;51.426;5.444;2023-08-17T09:09:22;6.28;;;1.90;;
48613;SDS011;34408;51.426;5.444;2023-08-17T09:11:55;6.50;;;2.10;;
48613;SDS011;34408;51.426;5.444;2023-08-17T09:14:23;6.82;;;2.30;;
48613;SDS011;34408;51.426;5.444;2023-08-17T09:16:51;3.25;;;1.85;;
48613;SDS011;34408;51.426;5.444;2023-08-17T09:19:19;5.72;;;2.63;;
48613;SDS011;34408;51.426;5.444;2023-08-17T09:21:49;7.70;;;2.28;;
48613;SDS011;34408;51.426;5.444;2023-08-17T09:24:17;10.10;;;3.20;;
48613;SDS011;34408;51.426;5.444;2023-08-17T09:26:45;8.10;;;2.03;;
48613;SDS011;34408;51.426;5.444;2023-08-17T09:29:16;4.28;;;2.10;;
48613;SDS011;34408;51.426;5.444;2023-08-17T09:31:45;6.78;;;2.55;;
48613;SDS011;34408;51.426;5.444;2023-08-17T09:34:13;4.80;;;2.10;;
48613;SDS011;34408;51.426;5.444;2023-08-17T09:36:42;7.53;;;2.17;;
48613;SDS011;34408;51.426;5.444;2023-08-17T09:39:14;4.53;;;2.58;;
48613;SDS011;34408;51.426;5.444;2023-08-17T09:41:43;5.07;;;2.30;;
48613;SDS011;34408;51.426;5.444;2023-08-17T09:44:11;4.28;;;2.08;;
48613;SDS011;34408;51.426;5.444;2023-08-17T09:46:42;8.30;;;2.78;;
48613;SDS011;34408;51.426;5.444;2023-08-17T09:49:10;8.27;;;2.85;;
48613;SDS011;34408;51.426;5.444;2023-08-17T09:51:41;9.45;;;2.95;;
48613;SDS011;34408;51.426;5.444;2023-08-17T09:54:17;9.60;;;3.38;;
48613;SDS011;34408;51.426;5.444;2023-08-17T09:56:48;11.07;;;2.90;;
48613;SDS011;34408;51.426;5.444;2023-08-17T09:59:17;8.95;;;3.05;;
48613;SDS011;34408;51.426;5.444;2023-08-17T10:01:45;7.78;;;3.20;;
48613;SDS011;34408;51.426;5.444;2023-08-17T10:04:22;11.18;;;3.08;;
48613;SDS011;34408;51.426;5.444;2023-08-17T10:06:52;8.60;;;3.42;;
48613;SDS011;34408;51.426;5.444;2023-08-17T10:09:28;13.85;;;2.90;;
48613;SDS011;34408;51.426;5.444;2023-08-17T10:12:01;8.65;;;3.25;;
48613;SDS011;34408;51.426;5.444;2023-08-17T10:14:39;8.07;;;3.22;;
48613;SDS011;34408;51.426;5.444;2023-08-17T10:17:13;7.15;;;2.95;;
48613;SDS011;34408;51.426;5.444;2023-08-17T10:19:46;10.68;;;3.58;;
48613;SDS011;34408;51.426;5.444;2023-08-17T10:22:19;12.20;;;4.13;;
48613;SDS011;34408;51.426;5.444;2023-08-17T10:24:52;9.40;;;3.20;;
48613;SDS011;34408;51.426;5.444;2023-08-17T10:27:21;8.48;;;3.75;;
48613;SDS011;34408;51.426;5.444;2023-08-17T10:29:50;7.00;;;3.08;;
48613;SDS011;34408;51.426;5.444;2023-08-17T10:32:20;10.05;;;3.63;;
48613;SDS011;34408;51.426;5.444;2023-08-17T10:34:50;9.20;;;3.83;;
48613;SDS011;34408;51.426;5.444;2023-08-17T10:37:19;5.93;;;3.10;;
48613;SDS011;34408;51.426;5.444;2023-08-17T10:39:48;6.38;;;3.15;;
48613;SDS011;34408;51.426;5.444;2023-08-17T10:42:20;12.55;;;3.80;;
48613;SDS011;34408;51.426;5.444;2023-08-17T10:44:58;10.65;;;4.47;;
48613;SDS011;34408;51.426;5.444;2023-08-17T10:47:29;7.05;;;3.40;;
48613;SDS011;34408;51.426;5.444;2023-08-17T10:50:03;14.13;;;3.70;;
48613;SDS011;34408;51.426;5.444;2023-08-17T10:52:33;8.57;;;3.65;;
48613;SDS011;34408;51.426;5.444;2023-08-17T10:55:04;8.90;;;3.67;;
48613;SDS011;34408;51.426;5.444;2023-08-17T10:57:35;10.50;;;3.88;;
48613;SDS011;34408;51.426;5.444;2023-08-17T11:02:54;8.18;;;3.95;;
48613;SDS011;34408;51.426;5.444;2023-08-17T11:05:36;9.23;;;4.05;;
48613;SDS011;34408;51.426;5.444;2023-08-17T11:08:19;8.55;;;4.47;;
48613;SDS011;34408;51.426;5.444;2023-08-17T11:10:56;10.10;;;4.20;;
48613;SDS011;34408;51.426;5.444;2023-08-17T11:13:28;13.05;;;4.88;;
48613;SDS011;34408;51.426;5.444;2023-08-17T11:15:58;8.32;;;3.70;;
48613;SDS011;34408;51.426;5.444;2023-08-17T11:18:29;9.57;;;4.07;;
48613;SDS011;34408;51.426;5.444;2023-08-17T11:20:57;8.57;;;4.45;;
48613;SDS011;34408;51.426;5.444;2023-08-17T11:23:28;11.38;;;4.50;;
48613;SDS011;34408;51.426;5.444;2023-08-17T11:25:57;10.23;;;4.60;;
48613;SDS011;34408;51.426;5.444;2023-08-17T11:28:25;8.63;;;4.13;;
48613;SDS011;34408;51.426;5.444;2023-08-17T11:31:00;10.18;;;4.00;;
48613;SDS011;34408;51.426;5.444;2023-08-17T11:33:29;11.50;;;4.68;;
48613;SDS011;34408;51.426;5.444;2023-08-17T11:35:58;10.52;;;4.72;;
48613;SDS011;34408;51.426;5.444;2023-08-17T11:38:29;9.38;;;3.75;;
48613;SDS011;34408;51.426;5.444;2023-08-17T11:40:58;10.82;;;4.43;;
48613;SDS011;34408;51.426;5.444;2023-08-17T11:43:27;11.07;;;5.00;;
48613;SDS011;34408;51.426;5.444;2023-08-17T11:45:56;11.13;;;4.28;;
48613;SDS011;34408;51.426;5.444;2023-08-17T11:48:26;10.30;;;5.38;;
48613;SDS011;34408;51.426;5.444;2023-08-17T11:50:55;11.73;;;5.00;;
48613;SDS011;34408;51.426;5.444;2023-08-17T11:53:24;10.68;;;4.82;;
48613;SDS011;34408;51.426;5.444;2023-08-17T11:55:52;11.43;;;4.72;;
48613;SDS011;34408;51.426;5.444;2023-08-17T11:58:35;6.45;;;3.83;;
48613;SDS011;34408;51.426;5.444;2023-08-17T12:01:03;10.18;;;4.82;;
48613;SDS011;34408;51.426;5.444;2023-08-17T12:03:38;8.82;;;4.00;;
48613;SDS011;34408;51.426;5.444;2023-08-17T12:06:07;8.85;;;3.80;;
48613;SDS011;34408;51.426;5.444;2023-08-17T12:08:35;9.93;;;3.80;;
48613;SDS011;34408;51.426;5.444;2023-08-17T12:11:03;7.93;;;4.65;;
48613;SDS011;34408;51.426;5.444;2023-08-17T12:13:34;9.38;;;4.10;;
48613;SDS011;34408;51.426;5.444;2023-08-17T12:16:03;9.32;;;3.83;;
48613;SDS011;34408;51.426;5.444;2023-08-17T12:18:32;10.07;;;4.53;;
48613;SDS011;34408;51.426;5.444;2023-08-17T12:21:03;9.82;;;4.25;;
48613;SDS011;34408;51.426;5.444;2023-08-17T12:23:32;11.27;;;4.93;;
48613;SDS011;34408;51.426;5.444;2023-08-17T12:26:00;8.75;;;4.65;;
48613;SDS011;34408;51.426;5.444;2023-08-17T12:28:28;9.52;;;4.53;;
48613;SDS011;34408;51.426;5.444;2023-08-17T12:30:57;10.23;;;4.43;;
48613;SDS011;34408;51.426;5.444;2023-08-17T12:33:26;7.30;;;4.15;;
48613;SDS011;34408;51.426;5.444;2023-08-17T12:35:54;8.55;;;4.00;;
48613;SDS011;34408;51.426;5.444;2023-08-17T12:38:24;8.90;;;3.50;;
48613;SDS011;34408;51.426;5.444;2023-08-17T12:40:52;7.53;;;3.42;;
48613;SDS011;34408;51.426;5.444;2023-08-17T12:43:21;8.23;;;3.90;;
48613;SDS011;34408;51.426;5.444;2023-08-17T12:45:48;12.45;;;4.65;;
48613;SDS011;34408;51.426;5.444;2023-08-17T12:48:17;12.57;;;4.57;;
48613;SDS011;34408;51.426;5.444;2023-08-17T12:50:45;10.30;;;3.90;;
48613;SDS011;34408;51.426;5.444;2023-08-17T12:53:13;6.57;;;3.83;;
48613;SDS011;34408;51.426;5.444;2023-08-17T12:55:42;7.18;;;3.85;;
48613;SDS011;34408;51.426;5.444;2023-08-17T12:58:10;9.82;;;4.13;;
48613;SDS011;34408;51.426;5.444;2023-08-17T13:00:38;9.75;;;4.63;;
48613;SDS011;34408;51.426;5.444;2023-08-17T13:03:06;8.75;;;4.10;;
48613;SDS011;34408;51.426;5.444;2023-08-17T13:05:36;7.82;;;4.05;;
48613;SDS011;34408;51.426;5.444;2023-08-17T13:08:04;8.50;;;3.80;;
48613;SDS011;34408;51.426;5.444;2023-08-17T13:10:32;7.22;;;4.28;;
48613;SDS011;34408;51.426;5.444;2023-08-17T13:13:01;10.27;;;4.65;;
48613;SDS011;34408;51.426;5.444;2023-08-17T13:15:31;9.15;;;4.00;;
48613;SDS011;34408;51.426;5.444;2023-08-17T13:18:00;7.47;;;4.25;;
48613;SDS011;34408;51.426;5.444;2023-08-17T13:20:28;8.55;;;3.80;;
48613;SDS011;34408;51.426;5.444;2023-08-17T13:22:56;9.30;;;4.38;;
48613;SDS011;34408;51.426;5.444;2023-08-17T13:25:24;8.95;;;3.50;;
48613;SDS011;34408;51.426;5.444;2023-08-17T13:27:52;7.78;;;3.83;;
48613;SDS011;34408;51.426;5.444;2023-08-17T13:30:21;8.35;;;3.90;;
48613;SDS011;34408;51.426;5.444;2023-08-17T13:32:50;7.15;;;3.80;;
48613;SDS011;34408;51.426;5.444;2023-08-17T13:35:18;6.82;;;3.60;;
48613;SDS011;34408;51.426;5.444;2023-08-17T13:37:50;9.73;;;3.95;;
48613;SDS011;34408;51.426;5.444;2023-08-17T13:40:19;6.53;;;3.08;;
48613;SDS011;34408;51.426;5.444;2023-08-17T13:42:47;8.32;;;4.47;;
48613;SDS011;34408;51.426;5.444;2023-08-17T13:45:15;7.50;;;4.10;;
48613;SDS011;34408;51.426;5.444;2023-08-17T13:47:44;9.65;;;3.78;;
48613;SDS011;34408;51.426;5.444;2023-08-17T13:50:12;5.38;;;3.13;;
48613;SDS011;34408;51.426;5.444;2023-08-17T13:52:40;7.22;;;3.47;;
48613;SDS011;34408;51.426;5.444;2023-08-17T13:55:08;6.45;;;4.00;;
48613;SDS011;34408;51.426;5.444;2023-08-17T13:57:36;8.32;;;3.47;;
48613;SDS011;34408;51.426;5.444;2023-08-17T14:00:04;6.15;;;3.60;;
48613;SDS011;34408;51.426;5.444;2023-08-17T14:02:33;9.52;;;3.42;;
48613;SDS011;34408;51.426;5.444;2023-08-17T14:05:04;8.55;;;3.58;;
48613;SDS011;34408;51.426;5.444;2023-08-17T14:07:33;5.72;;;3.28;;
48613;SDS011;34408;51.426;5.444;2023-08-17T14:10:00;7.38;;;3.67;;
48613;SDS011;34408;51.426;5.444;2023-08-17T14:12:36;7.05;;;4.03;;
48613;SDS011;34408;51.426;5.444;2023-08-17T14:15:04;5.18;;;3.35;;
48613;SDS011;34408;51.426;5.444;2023-08-17T14:17:33;8.10;;;3.20;;
48613;SDS011;34408;51.426;5.444;2023-08-17T14:20:01;9.88;;;4.72;;
48613;SDS011;34408;51.426;5.444;2023-08-17T14:22:30;7.40;;;4.50;;
48613;SDS011;34408;51.426;5.444;2023-08-17T14:24:58;8.10;;;4.38;;
48613;SDS011;34408;51.426;5.444;2023-08-17T14:27:26;6.70;;;3.28;;
48613;SDS011;34408;51.426;5.444;2023-08-17T14:29:54;7.10;;;3.50;;
48613;SDS011;34408;51.426;5.444;2023-08-17T14:32:22;6.90;;;4.10;;
48613;SDS011;34408;51.426;5.444;2023-08-17T14:34:51;7.03;;;3.92;;
48613;SDS011;34408;51.426;5.444;2023-08-17T14:37:18;9.30;;;4.28;;
48613;SDS011;34408;51.426;5.444;2023-08-17T14:39:52;8.05;;;3.63;;
48613;SDS011;34408;51.426;5.444;2023-08-17T14:42:19;8.93;;;4.60;;
48613;SDS011;34408;51.426;5.444;2023-08-17T14:44:47;6.70;;;4.72;;
48613;SDS011;34408;51.426;5.444;2023-08-17T14:47:15;6.18;;;3.90;;
48613;SDS011;34408;51.426;5.444;2023-08-17T14:49:46;8.20;;;3.80;;
48613;SDS011;34408;51.426;5.444;2023-08-17T14:52:14;6.85;;;3.80;;
48613;SDS011;34408;51.426;5.444;2023-08-17T14:54:42;8.82;;;3.80;;
48613;SDS011;34408;51.426;5.444;2023-08-17T14:57:12;6.20;;;3.28;;
48613;SDS011;34408;51.426;5.444;2023-08-17T14:59:39;5.93;;;3.72;;
48613;SDS011;34408;51.426;5.444;2023-08-17T15:02:08;7.18;;;4.25;;
48613;SDS011;34408;51.426;5.444;2023-08-17T15:04:37;6.68;;;4.20;;